Time;durP1;ratioP1;P1;durP2;ratioP2;P2;SDS_P1;SDS_P2;PMS_P1;PMS_P2;Temp;Humidity;BMP_temperature;BMP_pressure;BME280_temperature;BME280_humidity;BME280_pressure;Samples;Min_cycle;Max_cycle;Signal;HPM_P1;HPM_P2
2022/08/26 00:02:17;;;;;;;7.95;4.15;;;;;;;20.57;66.29;94571.94;5097485;28;20231;-69
2022/08/26 00:04:46;;;;;;;11.10;4.32;;;;;;;20.55;66.23;94563.97;5097341;28;20197;-69
2022/08/26 00:07:15;;;;;;;8.98;4.05;;;;;;;20.53;66.74;94566.38;5097241;28;20203;-69
2022/08/26 00:09:42;;;;;;;9.05;4.43;;;;;;;20.51;66.81;94563.22;5097026;28;20200;-69
2022/08/26 00:12:09;;;;;;;9.60;4.40;;;;;;;20.50;67.00;94560.84;5097497;28;20605;-69
2022/08/26 00:14:39;;;;;;;9.35;4.25;;;;;;;20.47;66.54;94565.28;5096951;28;20196;-69
2022/08/26 00:17:09;;;;;;;10.15;4.03;;;;;;;20.47;66.82;94562.47;5097211;28;20192;-68
2022/08/26 00:19:36;;;;;;;7.07;4.05;;;;;;;20.46;66.84;94562.91;5097392;28;20269;-68
2022/08/26 00:22:05;;;;;;;8.45;4.07;;;;;;;20.43;67.36;94554.13;5097518;28;20220;-69
2022/08/26 00:24:32;;;;;;;8.40;4.38;;;;;;;20.43;67.26;94556.16;5097285;28;20203;-69
2022/08/26 00:27:00;;;;;;;8.57;4.05;;;;;;;20.42;67.52;94560.16;5095396;28;20228;-69
2022/08/26 00:29:27;;;;;;;8.05;4.30;;;;;;;20.40;67.05;94554.19;5096754;28;20215;-69
2022/08/26 00:31:55;;;;;;;7.10;4.43;;;;;;;20.37;67.34;94555.06;5096986;28;20616;-69
2022/08/26 00:34:22;;;;;;;9.00;4.00;;;;;;;20.36;67.84;94565.47;5097605;28;20199;-69
2022/08/26 00:36:52;;;;;;;9.48;4.20;;;;;;;20.34;67.79;94551.13;5097476;28;20195;-69
2022/08/26 00:39:21;;;;;;;10.60;4.45;;;;;;;20.30;67.56;94558.78;5096302;28;20193;-69
2022/08/26 00:41:48;;;;;;;6.70;4.38;;;;;;;20.28;67.74;94554.84;5096030;28;20216;-70
2022/08/26 00:44:16;;;;;;;7.88;4.00;;;;;;;20.28;67.94;94560.44;5095909;28;20238;-69
2022/08/26 00:46:47;;;;;;;7.60;4.03;;;;;;;20.27;68.39;94556.06;5096407;28;20200;-68
2022/08/26 00:49:18;;;;;;;8.00;4.43;;;;;;;20.26;68.14;94557.25;5096172;28;20601;-68
2022/08/26 00:51:50;;;;;;;9.38;3.80;;;;;;;20.25;68.31;94562.06;5096828;28;20232;-68
2022/08/26 00:54:23;;;;;;;7.50;4.10;;;;;;;20.22;67.78;94562.13;5096738;28;20181;-68
2022/08/26 00:56:55;;;;;;;8.05;4.00;;;;;;;20.22;68.04;94556.53;5096837;28;20181;-68
2022/08/26 00:59:22;;;;;;;7.72;4.22;;;;;;;20.20;68.44;94565.38;5096846;28;20203;-69
2022/08/26 01:01:52;;;;;;;7.18;3.67;;;;;;;20.20;68.29;94562.56;5096800;28;20205;-69
2022/08/26 01:04:23;;;;;;;10.35;4.25;;;;;;;20.18;68.17;94562.19;5095602;28;20188;-69
2022/08/26 01:06:52;;;;;;;7.60;4.25;;;;;;;20.15;68.45;94561.06;5096457;28;20200;-68
2022/08/26 01:09:22;;;;;;;11.38;5.07;;;;;;;20.16;68.70;94559.84;5095149;28;20219;-69
2022/08/26 01:11:51;;;;;;;10.15;4.28;;;;;;;20.16;68.94;94559.06;5095669;28;20207;-68
2022/08/26 01:14:19;;;;;;;8.95;4.03;;;;;;;20.15;68.46;94557.44;5095510;28;20203;-68
2022/08/26 01:16:47;;;;;;;11.85;4.50;;;;;;;20.13;68.64;94552.28;5095466;28;20192;-68
2022/08/26 01:19:19;;;;;;;8.15;4.40;;;;;;;20.14;68.89;94556.66;5095527;28;20200;-68
2022/08/26 01:21:50;;;;;;;12.98;5.05;;;;;;;20.15;68.87;94540.66;5096363;28;20271;-68
2022/08/26 01:24:18;;;;;;;9.77;4.63;;;;;;;20.15;68.77;94544.28;5095997;28;20257;-68
2022/08/26 01:26:45;;;;;;;8.32;3.95;;;;;;;20.16;68.87;94539.47;5095994;28;20199;-68
2022/08/26 01:29:16;;;;;;;10.30;4.05;;;;;;;20.15;68.81;94541.47;5095611;28;20627;-68
2022/08/26 01:31:46;;;;;;;5.82;3.63;;;;;;;20.15;69.34;94540.66;5095567;28;20205;-68
2022/08/26 01:34:18;;;;;;;8.15;4.50;;;;;;;20.16;68.94;94547.84;5095492;28;20193;-68
2022/08/26 01:36:50;;;;;;;7.10;3.65;;;;;;;20.12;68.46;94549.94;5095560;28;20192;-68
2022/08/26 01:39:19;;;;;;;8.85;3.67;;;;;;;20.08;68.55;94547.19;5095238;28;20193;-68
2022/08/26 01:41:46;;;;;;;8.05;4.18;;;;;;;20.08;68.61;94549.19;5096275;28;20224;-69
2022/08/26 01:44:17;;;;;;;8.60;4.28;;;;;;;20.07;68.37;94542.78;5095153;28;20265;-68
2022/08/26 01:46:48;;;;;;;9.05;3.90;;;;;;;20.10;68.80;94546.75;5095032;28;20199;-69
2022/08/26 01:49:16;;;;;;;9.48;4.15;;;;;;;20.08;69.15;94537.97;5095277;28;20192;-68
2022/08/26 01:51:44;;;;;;;11.05;4.30;;;;;;;20.07;68.98;94536.41;5094765;28;20240;-68
2022/08/26 01:54:12;;;;;;;8.23;4.20;;;;;;;20.05;68.84;94548.03;5095601;28;20184;-69
2022/08/26 01:56:40;;;;;;;8.10;4.18;;;;;;;20.03;68.78;94544.88;5095083;28;20195;-69
2022/08/26 01:59:10;;;;;;;12.18;4.03;;;;;;;20.01;67.72;94547.31;5095062;28;20208;-69
2022/08/26 02:01:37;;;;;;;8.25;3.80;;;;;;;20.00;68.50;94540.13;5095138;28;20219;-69
2022/08/26 02:04:10;;;;;;;9.55;4.03;;;;;;;20.00;68.19;94545.72;5094596;28;20212;-69
2022/08/26 02:06:38;;;;;;;10.43;4.60;;;;;;;20.00;68.36;94548.50;5095482;28;20200;-69
2022/08/26 02:09:07;;;;;;;9.88;4.22;;;;;;;19.99;67.74;94551.75;5095497;28;20177;-69
2022/08/26 02:11:35;;;;;;;9.27;3.78;;;;;;;19.95;68.51;94544.22;5094455;28;20207;-69
2022/08/26 02:14:09;;;;;;;6.57;3.67;;;;;;;19.93;68.48;94543.03;5095567;28;20181;-69
2022/08/26 02:16:39;;;;;;;10.48;4.60;;;;;;;19.92;68.46;94545.06;5094977;28;20207;-69
2022/08/26 02:19:06;;;;;;;8.57;4.53;;;;;;;19.92;68.05;94544.25;5094640;28;20195;-69
2022/08/26 02:21:33;;;;;;;8.95;4.07;;;;;;;19.91;68.55;94537.88;5095104;28;20229;-69
2022/08/26 02:24:09;;;;;;;9.90;4.30;;;;;;;19.89;68.39;94533.91;5094449;28;20220;-69
2022/08/26 02:26:36;;;;;;;8.52;4.38;;;;;;;19.88;68.86;94537.94;5095174;28;20181;-69
2022/08/26 02:29:08;;;;;;;13.10;4.47;;;;;;;19.86;68.68;94545.97;5095079;28;20189;-70
2022/08/26 02:31:34;;;;;;;10.23;3.70;;;;;;;19.83;68.91;94542.03;5094454;28;20200;-70
2022/08/26 02:34:08;;;;;;;7.53;3.85;;;;;;;19.78;69.10;94542.50;5094509;28;20200;-70
2022/08/26 02:36:35;;;;;;;8.38;3.90;;;;;;;19.78;69.20;94542.50;5095348;28;20185;-70
2022/08/26 02:39:05;;;;;;;10.30;5.07;;;;;;;19.79;69.28;94534.88;5095022;28;20593;-70
2022/08/26 02:41:31;;;;;;;11.07;4.47;;;;;;;19.80;69.65;94537.28;5094196;28;20203;-69
2022/08/26 02:43:59;;;;;;;13.23;4.95;;;;;;;19.80;69.53;94534.47;5094882;28;20205;-69
2022/08/26 02:46:30;;;;;;;7.72;4.07;;;;;;;19.80;69.55;94537.28;5094880;28;20196;-69
2022/08/26 02:48:56;;;;;;;10.27;4.03;;;;;;;19.80;68.99;94544.88;5094804;28;20697;-69
2022/08/26 02:51:27;;;;;;;10.07;4.38;;;;;;;19.74;69.05;94549.38;5098829;28;20228;-69
2022/08/26 02:53:54;;;;;;;10.07;4.13;;;;;;;19.67;68.96;94550.28;5098889;28;20662;-69
2022/08/26 02:56:22;;;;;;;9.50;4.13;;;;;;;19.65;68.92;94550.72;5099301;28;20192;-69
2022/08/26 02:58:49;;;;;;;10.32;4.00;;;;;;;19.71;68.57;94548.22;5099506;28;20237;-69
2022/08/26 03:01:21;;;;;;;8.95;4.07;;;;;;;19.75;68.83;94548.16;5098860;28;20199;-69
2022/08/26 03:03:51;;;;;;;11.48;4.43;;;;;;;19.79;68.77;94546.06;5098720;28;20644;-69
2022/08/26 03:06:19;;;;;;;11.68;4.05;;;;;;;19.80;69.03;94545.66;5099218;28;20181;-69
2022/08/26 03:08:46;;;;;;;13.52;5.68;;;;;;;19.83;68.83;94544.03;5097753;28;20208;-69
2022/08/26 03:11:14;;;;;;;8.48;4.53;;;;;;;19.85;69.01;94555.59;5098179;28;20188;-69
2022/08/26 03:13:42;;;;;;;9.57;4.60;;;;;;;19.82;69.31;94551.63;5098029;28;20195;-69
2022/08/26 03:16:12;;;;;;;7.28;4.30;;;;;;;19.80;69.40;94553.28;5098577;28;20184;-68
2022/08/26 03:18:39;;;;;;;11.77;4.40;;;;;;;19.78;69.08;94558.50;5097972;28;20196;-69
2022/08/26 03:21:13;;;;;;;11.70;5.20;;;;;;;19.75;68.98;94548.94;5098767;28;20177;-69
2022/08/26 03:23:41;;;;;;;7.85;4.05;;;;;;;19.71;69.38;94546.19;5098705;28;20214;-69
2022/08/26 03:26:12;;;;;;;9.68;4.35;;;;;;;19.71;68.90;94548.22;5098372;28;20184;-68
2022/08/26 03:30:38;;;;;;;8.73;4.57;;;;;;;19.70;69.13;94544.63;5098079;28;20188;-69
2022/08/26 03:31:26;;;;;;;11.75;4.40;;;;;;;19.73;69.82;94547.81;5097091;28;20235;-69
2022/08/26 03:33:53;;;;;;;9.48;4.90;;;;;;;19.74;69.72;94552.97;5097625;28;20192;-69
2022/08/26 03:36:24;;;;;;;11.38;5.50;;;;;;;19.73;69.41;94545.78;5098210;28;20548;-69
2022/08/26 03:38:51;;;;;;;9.73;4.28;;;;;;;19.73;69.62;94545.00;5098185;28;20613;-69
2022/08/26 03:41:20;;;;;;;14.52;4.30;;;;;;;19.74;69.76;94546.56;5097966;28;20214;-69
2022/08/26 03:43:49;;;;;;;14.98;5.07;;;;;;;19.71;69.77;94549.00;5098228;28;20224;-68
2022/08/26 03:46:18;;;;;;;11.95;5.22;;;;;;;19.71;69.84;94546.19;5097343;28;20232;-69
2022/08/26 03:48:46;;;;;;;8.93;4.25;;;;;;;19.70;69.63;94544.63;5098283;28;20201;-68
2022/08/26 03:51:15;;;;;;;8.90;4.28;;;;;;;19.69;69.64;94551.44;5097127;28;20322;-68
2022/08/26 03:53:44;;;;;;;11.27;4.70;;;;;;;19.64;69.36;94548.31;5097084;28;20200;-70
2022/08/26 03:56:11;;;;;;;16.17;5.25;;;;;;;19.59;69.28;94545.97;5098217;28;20185;-69
2022/08/26 03:58:39;;;;;;;12.07;5.05;;;;;;;19.60;69.92;94544.75;5098106;28;20189;-69
2022/08/26 04:01:08;;;;;;;11.70;5.22;;;;;;;19.61;69.87;94543.56;5097043;28;20189;-69
2022/08/26 04:06:20;;;;;;;11.63;5.03;;;;;;;19.67;69.78;94545.47;5097052;28;20207;-69
2022/08/26 04:08:48;;;;;;;14.40;5.25;;;;;;;19.66;70.35;94541.09;5097062;28;20188;-68
2022/08/26 04:11:19;;;;;;;10.13;5.00;;;;;;;19.66;70.39;94552.28;5097937;28;20628;-68
2022/08/26 04:13:48;;;;;;;17.27;6.32;;;;;;;19.64;70.72;94539.94;5097843;28;20253;-68
2022/08/26 04:16:16;;;;;;;10.52;5.72;;;;;;;19.63;70.32;94544.72;5097460;28;20192;-68
2022/08/26 04:18:43;;;;;;;16.13;5.82;;;;;;;19.64;70.56;94539.94;5097831;28;20195;-69
2022/08/26 04:21:11;;;;;;;12.10;5.88;;;;;;;19.64;70.50;94551.91;5097098;28;20192;-69
2022/08/26 04:23:38;;;;;;;11.73;4.97;;;;;;;19.66;70.34;94543.09;5097324;28;20705;-69
2022/08/26 04:26:08;;;;;;;14.30;5.35;;;;;;;19.67;70.71;94542.66;5097585;28;20196;-69
2022/08/26 04:28:35;;;;;;;10.13;5.30;;;;;;;19.71;70.43;94539.81;5097471;28;20189;-69
2022/08/26 04:31:03;;;;;;;14.88;5.10;;;;;;;19.73;70.90;94543.00;5097372;28;20185;-69
2022/08/26 04:33:30;;;;;;;17.92;6.07;;;;;;;19.74;70.73;94541.75;5097123;28;20188;-69
2022/08/26 04:36:00;;;;;;;13.57;5.90;;;;;;;19.75;70.87;94546.13;5096977;28;20514;-69
2022/08/26 04:38:28;;;;;;;13.40;5.60;;;;;;;19.76;71.33;94542.16;5097311;28;20234;-69
2022/08/26 04:40:55;;;;;;;16.50;6.18;;;;;;;19.77;70.76;94548.53;5096569;28;20310;-69
2022/08/26 04:43:27;;;;;;;13.40;5.43;;;;;;;19.78;71.05;94550.88;5095818;28;20220;-69
2022/08/26 04:45:55;;;;;;;13.23;5.60;;;;;;;19.81;71.62;94549.25;5096399;28;20196;-69
2022/08/26 04:48:23;;;;;;;18.27;5.97;;;;;;;19.84;71.46;94545.63;5096649;28;20193;-69
2022/08/26 04:50:50;;;;;;;15.88;5.47;;;;;;;19.88;72.07;94544.31;5096322;28;20558;-69
2022/08/26 04:53:17;;;;;;;14.15;6.45;;;;;;;19.91;71.83;94545.50;5097123;28;20544;-70
2022/08/26 04:55:44;;;;;;;11.38;6.32;;;;;;;19.94;72.43;94541.84;5097170;28;20188;-69
2022/08/26 04:58:10;;;;;;;17.98;7.10;;;;;;;19.99;72.33;94543.34;5095816;28;20542;-70
2022/08/26 05:00:39;;;;;;;16.48;6.75;;;;;;;19.98;72.20;94539.78;5096516;28;20200;-69
2022/08/26 05:03:06;;;;;;;18.15;6.85;;;;;;;20.00;72.49;94542.13;5097027;28;20215;-69
2022/08/26 05:05:32;;;;;;;23.00;8.73;;;;;;;20.02;72.12;94540.50;5096024;28;20200;-68
2022/08/26 05:07:59;;;;;;;19.20;7.32;;;;;;;20.04;72.26;94540.84;5096691;28;20184;-68
2022/08/26 05:10:27;;;;;;;23.45;8.18;;;;;;;20.06;72.25;94549.63;5096539;28;20216;-69
2022/08/26 05:12:54;;;;;;;13.00;6.63;;;;;;;20.10;72.23;94552.34;5095247;28;20531;-69
2022/08/26 05:15:21;;;;;;;15.50;6.57;;;;;;;20.11;72.22;94551.91;5097114;28;20188;-69
2022/08/26 05:17:50;;;;;;;14.45;6.00;;;;;;;20.14;72.09;94551.06;5095737;28;20616;-72
2022/08/26 05:20:18;;;;;;;11.43;6.88;;;;;;;20.16;72.09;94556.25;5095976;28;20287;-70
2022/08/26 05:22:44;;;;;;;16.38;7.00;;;;;;;20.19;72.08;94558.19;5095655;28;20200;-70
2022/08/26 05:25:11;;;;;;;17.40;7.32;;;;;;;20.22;72.50;94557.31;5095565;28;20184;-69
2022/08/26 05:27:38;;;;;;;15.48;6.57;;;;;;;20.25;72.80;94552.88;5095481;28;20202;-70
2022/08/26 05:30:06;;;;;;;16.27;7.80;;;;;;;20.28;72.58;94560.44;5096285;28;20188;-69
2022/08/26 05:32:34;;;;;;;14.63;6.82;;;;;;;20.30;72.75;94556.00;5096048;28;20231;-69
2022/08/26 05:35:02;;;;;;;20.23;8.07;;;;;;;20.34;72.76;94562.31;5096385;28;20184;-69
2022/08/26 05:37:29;;;;;;;17.63;8.05;;;;;;;20.36;72.42;94564.69;5095296;28;20196;-69
2022/08/26 05:39:55;;;;;;;18.02;7.57;;;;;;;20.41;73.42;94558.59;5095931;28;20187;-70
2022/08/26 05:42:24;;;;;;;15.43;7.20;;;;;;;20.44;72.62;94566.13;5095486;28;20200;-67
2022/08/26 05:44:52;;;;;;;17.17;7.50;;;;;;;20.46;72.68;94562.91;5095661;28;20219;-68
2022/08/26 05:47:19;;;;;;;15.73;6.65;;;;;;;20.50;70.34;94569.25;5095324;28;20593;-68
2022/08/26 05:49:46;;;;;;;13.73;5.90;;;;;;;20.55;68.55;94563.16;5095661;28;20220;-68
2022/08/26 05:52:19;;;;;;;14.68;6.32;;;;;;;20.56;68.11;94561.94;5095029;28;20242;-68
2022/08/26 05:54:47;;;;;;;13.50;5.60;;;;;;;20.60;68.40;94562.66;5095547;28;20196;-68
2022/08/26 05:57:18;;;;;;;15.60;7.05;;;;;;;20.62;67.70;94563.78;5095998;28;20184;-68
2022/08/26 05:59:45;;;;;;;11.45;6.35;;;;;;;20.68;66.86;94564.88;5095743;28;20188;-68
2022/08/26 06:02:12;;;;;;;14.25;7.07;;;;;;;20.73;66.61;94565.59;5095091;28;20211;-68
2022/08/26 06:04:42;;;;;;;11.23;5.53;;;;;;;20.78;66.08;94559.50;5095118;28;20216;-68
2022/08/26 06:07:08;;;;;;;14.68;7.40;;;;;;;20.82;66.09;94565.84;5095693;28;20195;-68
2022/08/26 06:09:40;;;;;;;13.07;5.85;;;;;;;20.83;65.84;94570.22;5095020;28;20204;-68
2022/08/26 06:12:07;;;;;;;14.15;6.85;;;;;;;20.86;65.40;94572.16;5095572;28;20201;-68
2022/08/26 06:14:35;;;;;;;11.05;5.65;;;;;;;20.87;64.98;94574.50;5095822;28;20173;-68
2022/08/26 06:17:02;;;;;;;13.32;5.90;;;;;;;20.89;65.25;94568.50;5095428;28;20193;-68
2022/08/26 06:19:31;;;;;;;9.13;5.80;;;;;;;20.90;65.62;94576.44;5095776;28;20184;-68
2022/08/26 06:25:36;;;;;;;11.52;6.15;;;;;;;20.94;65.07;94575.59;5095555;28;20208;-68
2022/08/26 06:27:49;;;;;;;10.77;5.50;;;;;;;20.99;64.62;94572.28;5036700;28;20197;-68
2022/08/26 06:30:16;;;;;;;10.45;5.65;;;;;;;21.02;64.82;94585.44;5080930;28;20216;-68
2022/08/26 06:32:44;;;;;;;11.25;5.07;;;;;;;21.06;64.44;94574.94;5095378;28;20196;-68
2022/08/26 06:35:12;;;;;;;9.95;5.30;;;;;;;21.09;64.33;94580.47;5095730;28;20200;-69
2022/08/26 06:37:43;;;;;;;11.23;5.88;;;;;;;21.15;64.43;94580.75;5094660;28;20199;-68
2022/08/26 06:40:15;;;;;;;11.57;5.88;;;;;;;21.17;64.32;94586.72;5095409;28;20193;-68
2022/08/26 06:42:41;;;;;;;9.20;5.53;;;;;;;21.20;64.10;94585.06;5095495;28;20211;-68
2022/08/26 06:45:10;;;;;;;10.85;5.63;;;;;;;21.23;63.95;94587.78;5095242;28;20647;-68
2022/08/26 06:47:37;;;;;;;10.50;5.30;;;;;;;21.25;63.84;94587.38;5094305;28;20211;-68
2022/08/26 06:50:08;;;;;;;11.13;5.65;;;;;;;21.26;63.71;94588.94;5094610;28;20196;-68
2022/08/26 06:52:36;;;;;;;9.50;5.20;;;;;;;21.27;64.11;94590.50;5095509;28;20176;-69
2022/08/26 06:55:03;;;;;;;15.80;5.50;;;;;;;21.27;63.99;94582.88;5094431;28;20192;-68
2022/08/26 06:57:33;;;;;;;12.98;6.00;;;;;;;21.27;64.23;94584.91;5094414;28;20208;-68
2022/08/26 07:00:00;;;;;;;7.32;4.95;;;;;;;21.31;64.21;94582.81;5094417;28;20294;-68
2022/08/26 07:02:29;;;;;;;12.25;5.45;;;;;;;21.34;63.80;94581.97;5095269;28;20223;-68
2022/08/26 07:04:58;;;;;;;9.52;4.95;;;;;;;21.35;63.54;94584.38;5095527;28;20215;-68
2022/08/26 07:07:27;;;;;;;9.40;4.95;;;;;;;21.39;63.85;94592.69;5095204;28;20257;-68
2022/08/26 07:09:54;;;;;;;10.65;5.22;;;;;;;21.43;64.00;94587.00;5095088;28;20185;-68
2022/08/26 07:12:21;;;;;;;9.38;5.43;;;;;;;21.47;63.64;94587.72;5094209;28;20204;-68
2022/08/26 07:14:49;;;;;;;10.75;5.30;;;;;;;21.50;63.91;94586.84;5094840;28;20201;-68
2022/08/26 07:17:18;;;;;;;10.10;4.82;;;;;;;21.50;63.17;94586.84;5094380;28;20211;-68
2022/08/26 07:19:48;;;;;;;11.77;5.47;;;;;;;21.48;63.56;94586.47;5094118;28;20211;-68
2022/08/26 07:22:15;;;;;;;9.48;5.78;;;;;;;21.50;63.52;94589.66;5094347;28;20283;-68
2022/08/26 07:24:42;;;;;;;13.52;6.40;;;;;;;21.51;63.14;94591.22;5094351;28;20266;-68
2022/08/26 07:27:11;;;;;;;10.07;5.60;;;;;;;21.53;63.31;94591.56;5094884;28;20539;-68
2022/08/26 07:29:39;;;;;;;12.23;5.80;;;;;;;21.56;63.85;94596.31;5094153;28;20200;-68
2022/08/26 07:32:11;;;;;;;14.60;6.03;;;;;;;21.58;63.96;94591.06;5094696;28;20219;-68
2022/08/26 07:34:39;;;;;;;12.18;5.45;;;;;;;21.60;63.57;94588.59;5095046;28;20216;-68
2022/08/26 07:37:06;;;;;;;10.60;5.60;;;;;;;21.60;63.84;94586.56;5098250;28;20180;-68
2022/08/26 07:39:34;;;;;;;11.52;5.45;;;;;;;21.63;63.83;94587.72;5097695;28;20200;-68
2022/08/26 07:42:01;;;;;;;14.20;5.10;;;;;;;21.64;63.85;94586.50;5098458;28;20214;-68
2022/08/26 07:44:28;;;;;;;11.95;4.90;;;;;;;21.67;63.68;94590.44;5097601;28;20235;-68
2022/08/26 07:46:56;;;;;;;10.35;4.90;;;;;;;21.69;63.96;94593.63;5098419;28;20195;-68
2022/08/26 07:49:26;;;;;;;11.10;5.97;;;;;;;21.69;63.17;94590.81;5098173;28;20185;-68
2022/08/26 07:51:56;;;;;;;7.95;4.63;;;;;;;21.69;63.41;94590.81;5098637;28;20247;-68
2022/08/26 07:54:23;;;;;;;8.77;5.18;;;;;;;21.70;63.62;94589.59;5098060;28;20249;-68
2022/08/26 07:56:50;;;;;;;9.65;5.35;;;;;;;21.73;63.99;94592.31;5098137;28;20193;-68
2022/08/26 07:59:18;;;;;;;12.98;5.43;;;;;;;21.74;63.50;94593.09;5098262;28;20184;-68
2022/08/26 08:01:46;;;;;;;10.82;5.38;;;;;;;21.75;63.22;94603.91;5096913;28;20196;-68
2022/08/26 08:04:13;;;;;;;9.80;4.95;;;;;;;21.78;63.40;94599.41;5097298;28;20221;-68
2022/08/26 08:06:42;;;;;;;11.60;5.50;;;;;;;21.79;63.99;94603.81;5097146;28;20203;-68
2022/08/26 08:09:11;;;;;;;13.40;4.97;;;;;;;21.78;62.80;94594.59;5097129;28;20188;-68
2022/08/26 08:11:37;;;;;;;7.90;4.85;;;;;;;21.81;62.91;94595.72;5098002;28;20199;-68
2022/08/26 08:14:05;;;;;;;12.43;5.53;;;;;;;21.83;63.04;94596.09;5096915;28;20188;-68
2022/08/26 08:16:33;;;;;;;8.20;5.47;;;;;;;21.87;63.31;94599.59;5097291;28;20196;-68
2022/08/26 08:19:00;;;;;;;13.20;6.18;;;;;;;21.92;63.58;94596.25;5097395;28;20263;-68
2022/08/26 08:21:29;;;;;;;9.57;5.45;;;;;;;21.97;63.88;94595.75;5096788;28;20196;-68
2022/08/26 08:23:59;;;;;;;10.90;5.18;;;;;;;22.04;63.43;94591.97;5097273;28;20237;-68
2022/08/26 08:26:26;;;;;;;13.52;5.85;;;;;;;22.08;63.17;94590.66;5097335;28;20192;-68
2022/08/26 08:28:55;;;;;;;9.27;5.20;;;;;;;22.10;62.94;94591.00;5097509;28;20685;-68
2022/08/26 08:31:24;;;;;;;10.02;5.50;;;;;;;22.12;62.56;94587.78;5097668;28;20188;-68
2022/08/26 08:33:53;;;;;;;9.50;5.22;;;;;;;22.17;62.84;94592.09;5097621;28;20234;-68
2022/08/26 08:36:20;;;;;;;9.57;5.72;;;;;;;22.22;62.41;94594.34;5098172;28;20220;-68
2022/08/26 08:38:49;;;;;;;11.60;6.32;;;;;;;22.21;61.83;94593.56;5096678;28;20192;-68
2022/08/26 08:41:37;;;;;;;10.30;5.18;;;;;;;22.24;61.98;94591.91;5097314;28;20189;-68
2022/08/26 08:44:09;;;;;;;7.45;4.93;;;;;;;22.33;62.11;94590.06;5097173;28;20207;-68
2022/08/26 08:46:35;;;;;;;9.30;5.65;;;;;;;22.47;61.89;94588.09;5096700;28;20511;-68
2022/08/26 08:49:03;;;;;;;9.85;5.22;;;;;;;22.61;62.06;94584.91;5096212;28;20197;-68
2022/08/26 08:51:34;;;;;;;9.13;5.00;;;;;;;22.71;60.47;94581.03;5096055;28;20232;-68
2022/08/26 08:54:03;;;;;;;13.30;5.95;;;;;;;22.81;60.13;94574.31;5095939;28;20211;-68
2022/08/26 08:56:33;;;;;;;14.38;4.68;;;;;;;22.96;57.17;94577.53;5096677;28;20180;-68
2022/08/26 08:59:09;;;;;;;10.52;4.85;;;;;;;23.08;57.81;94569.59;5096214;28;20621;-68
2022/08/26 09:01:55;;;;;;;10.98;5.25;;;;;;;23.20;56.84;94574.44;5096222;28;20200;-68
2022/08/26 09:04:56;;;;;;;11.05;5.20;;;;;;;23.30;54.98;94574.13;5096335;28;20262;-68
2022/08/26 09:07:26;;;;;;;12.10;4.55;;;;;;;23.33;53.34;94569.63;5090688;28;20212;-68
2022/08/26 09:09:57;;;;;;;10.55;4.85;;;;;;;23.34;54.41;94568.38;5096702;28;20199;-68
2022/08/26 09:12:29;;;;;;;7.35;4.63;;;;;;;23.34;56.12;94564.78;5096751;28;20249;-68
2022/08/26 09:15:01;;;;;;;7.22;4.43;;;;;;;23.35;56.03;94564.34;5095832;28;20191;-68
2022/08/26 09:17:36;;;;;;;11.93;6.40;;;;;;;23.48;55.08;94561.53;5096907;28;20270;-68
2022/08/26 09:20:12;;;;;;;13.65;5.00;;;;;;;23.63;55.01;94556.25;5095504;28;20203;-68
2022/08/26 09:22:40;;;;;;;11.95;4.95;;;;;;;23.68;56.17;94552.94;5096611;28;20188;-68
2022/08/26 09:25:10;;;;;;;11.60;4.75;;;;;;;23.78;52.80;94548.97;5096568;28;20204;-68
2022/08/26 09:27:45;;;;;;;9.80;4.95;;;;;;;23.83;53.26;94542.78;5095543;28;20200;-68
2022/08/26 09:30:16;;;;;;;10.88;4.78;;;;;;;23.95;52.35;94544.00;5095529;28;20196;-68
2022/08/26 09:32:44;;;;;;;11.18;4.78;;;;;;;24.06;49.20;94543.66;5096147;28;20316;-68
2022/08/26 09:35:27;;;;;;;8.65;4.30;;;;;;;24.10;50.85;94539.47;5096048;28;20654;-68
2022/08/26 09:37:53;;;;;;;8.00;4.30;;;;;;;24.18;50.87;94540.00;5095240;28;20207;-68
2022/08/26 09:40:26;;;;;;;10.05;4.70;;;;;;;24.15;49.23;94549.38;5095906;28;20181;-68
2022/08/26 09:43:11;;;;;;;13.63;4.78;;;;;;;24.14;48.92;94542.16;5095696;28;20221;-68
2022/08/26 09:45:38;;;;;;;8.00;4.30;;;;;;;24.17;47.55;94547.69;5095704;28;20216;-68
2022/08/26 09:48:08;;;;;;;8.57;4.38;;;;;;;24.17;49.25;94550.50;5095308;28;20207;-68
2022/08/26 09:50:39;;;;;;;8.30;4.82;;;;;;;24.14;47.32;94550.59;5095463;28;20301;-68
2022/08/26 09:53:18;;;;;;;6.10;4.15;;;;;;;24.08;49.59;94546.81;5095225;28;20204;-68
2022/08/26 09:55:46;;;;;;;8.90;5.07;;;;;;;24.03;48.33;94548.16;5095877;28;20195;-68
2022/08/26 09:58:17;;;;;;;9.43;5.70;;;;;;;23.98;47.73;94546.69;5095429;28;20180;-68
2022/08/26 10:00:54;;;;;;;7.50;4.95;;;;;;;23.92;45.20;94539.28;5096126;28;20199;-68
2022/08/26 10:03:26;;;;;;;6.85;5.00;;;;;;;23.88;48.68;94542.19;5095096;28;20192;-68
2022/08/26 10:05:57;;;;;;;10.18;5.45;;;;;;;23.82;49.06;94541.22;5095707;28;20200;-68
2022/08/26 10:08:30;;;;;;;7.03;5.38;;;;;;;23.79;48.24;94542.09;5095878;28;20184;-68
2022/08/26 10:10:58;;;;;;;8.90;5.28;;;;;;;23.85;48.19;94534.66;5094870;28;20200;-68
2022/08/26 10:13:32;;;;;;;7.78;4.80;;;;;;;24.00;47.76;94532.16;5095337;28;20189;-68
2022/08/26 10:16:05;;;;;;;8.82;5.65;;;;;;;24.10;44.45;94527.41;5094636;28;20196;-68
2022/08/26 10:18:38;;;;;;;10.02;5.72;;;;;;;24.17;46.48;94530.78;5095565;28;20199;-68
2022/08/26 10:21:10;;;;;;;12.68;6.35;;;;;;;24.25;44.78;94529.28;5094717;28;20204;-68
2022/08/26 10:23:41;;;;;;;10.38;5.80;;;;;;;24.35;43.83;94529.38;5095113;28;20261;-68
2022/08/26 10:26:12;;;;;;;9.63;5.65;;;;;;;24.38;45.58;94528.47;5095262;28;20200;-68
2022/08/26 10:28:46;;;;;;;7.82;5.38;;;;;;;24.33;46.44;94529.84;5095282;28;20245;-68
2022/08/26 10:31:23;;;;;;;11.13;5.35;;;;;;;24.38;45.07;94532.06;5094826;28;20204;-68
2022/08/26 10:33:50;;;;;;;10.82;6.00;;;;;;;24.40;45.32;94532.44;5094228;28;20220;-68
2022/08/26 10:39:11;;;;;;;9.13;5.45;;;;;;;24.72;45.69;94511.53;5090128;28;20697;-68
2022/08/26 10:41:41;;;;;;;12.20;5.75;;;;;;;24.78;45.90;94523.03;5095108;28;20181;-68
2022/08/26 10:44:12;;;;;;;10.85;6.45;;;;;;;24.89;45.47;94523.41;5095549;28;20189;-68
2022/08/26 10:46:44;;;;;;;11.40;6.13;;;;;;;25.01;44.53;94521.78;5094134;28;20212;-68
2022/08/26 10:49:16;;;;;;;8.10;5.97;;;;;;;25.11;43.90;94522.66;5095480;28;20185;-68
2022/08/26 10:51:47;;;;;;;8.38;5.55;;;;;;;25.20;42.20;94517.88;5094017;28;20304;-68
2022/08/26 10:54:20;;;;;;;10.00;5.80;;;;;;;25.22;42.15;94517.38;5094357;28;20265;-68
2022/08/26 10:56:53;;;;;;;6.53;5.60;;;;;;;25.25;43.18;94513.66;5095278;28;20196;-68
2022/08/26 10:59:37;;;;;;;9.38;6.20;;;;;;;25.44;42.31;94509.66;5094528;28;20196;-68
2022/08/26 11:02:12;;;;;;;8.02;5.93;;;;;;;25.50;40.68;94501.38;5094359;28;20584;-68
2022/08/26 11:04:51;;;;;;;7.88;5.28;;;;;;;25.52;41.49;94503.72;5095178;28;20271;-68
2022/08/26 11:07:42;;;;;;;8.85;5.60;;;;;;;25.55;40.53;94508.47;5094256;28;20201;-68
2022/08/26 11:10:41;;;;;;;6.85;5.38;;;;;;;25.51;40.74;94511.41;5094053;28;20192;-68
2022/08/26 11:13:10;;;;;;;7.10;5.55;;;;;;;25.51;39.61;94510.63;5097899;28;20290;-68
2022/08/26 11:16:09;;;;;;;7.43;5.70;;;;;;;25.45;39.52;94508.44;5098169;28;20292;-68
2022/08/26 11:18:44;;;;;;;8.68;5.70;;;;;;;25.42;38.92;94511.41;5036813;28;20634;-68
2022/08/26 11:21:48;;;;;;;9.65;5.97;;;;;;;25.30;40.25;94504.56;5084363;28;20214;-68
2022/08/26 11:24:51;;;;;;;7.32;6.00;;;;;;;25.26;40.06;94498.28;5098695;28;20176;-68
2022/08/26 11:27:52;;;;;;;6.45;5.30;;;;;;;25.21;38.50;94498.91;5098531;28;20191;-68
2022/08/26 11:30:48;;;;;;;7.95;5.50;;;;;;;25.19;36.96;94504.97;5098794;28;20220;-68
2022/08/26 11:34:01;;;;;;;8.45;5.43;;;;;;;25.15;37.51;94503.56;5085287;28;20285;-68
2022/08/26 11:36:58;;;;;;;8.73;6.47;;;;;;;25.13;38.63;94501.22;5061159;28;20268;-68
2022/08/26 11:39:28;;;;;;;10.13;6.35;;;;;;;25.14;39.45;94502.78;5085200;28;20632;-68
2022/08/26 11:42:00;;;;;;;8.90;5.25;;;;;;;25.19;40.41;94498.56;5097572;28;20539;-68
2022/08/26 11:44:29;;;;;;;9.15;6.13;;;;;;;25.35;38.92;94487.06;5098488;28;20605;-68
2022/08/26 11:47:01;;;;;;;11.82;6.35;;;;;;;25.48;40.46;94486.16;5097448;28;20216;-68
2022/08/26 11:49:30;;;;;;;6.03;5.40;;;;;;;25.55;38.95;94483.81;5098485;28;20184;-68
2022/08/26 11:52:17;;;;;;;6.78;5.60;;;;;;;25.68;37.40;94481.69;5097910;28;20232;-68
2022/08/26 11:55:00;;;;;;;6.78;5.70;;;;;;;25.70;38.48;94484.81;5097804;28;20227;-68